sensor_id;sensor_type;location;lat;lon;timestamp;P1;durP1;ratioP1;P2;durP2;ratioP2
70663;SDS011;58237;57.996;56.290;2022-07-21T00:01:37;7.03;;;2.63;;
70663;SDS011;58237;57.996;56.290;2022-07-21T00:04:02;5.55;;;2.25;;
70663;SDS011;58237;57.996;56.290;2022-07-21T00:06:28;5.32;;;2.83;;
70663;SDS011;58237;57.996;56.290;2022-07-21T00:08:53;7.38;;;3.08;;
70663;SDS011;58237;57.996;56.290;2022-07-21T00:11:19;6.30;;;2.80;;
70663;SDS011;58237;57.996;56.290;2022-07-21T00:13:44;5.55;;;2.55;;
70663;SDS011;58237;57.996;56.290;2022-07-21T00:16:10;6.15;;;2.95;;
70663;SDS011;58237;57.996;56.290;2022-07-21T00:18:35;5.72;;;2.28;;
70663;SDS011;58237;57.996;56.290;2022-07-21T00:21:00;5.80;;;2.80;;
70663;SDS011;58237;57.996;56.290;2022-07-21T00:23:26;5.28;;;2.45;;
70663;SDS011;58237;57.996;56.290;2022-07-21T00:25:52;5.72;;;3.00;;
70663;SDS011;58237;57.996;56.290;2022-07-21T00:28:17;5.47;;;2.75;;
70663;SDS011;58237;57.996;56.290;2022-07-21T00:30:43;7.18;;;2.90;;
70663;SDS011;58237;57.996;56.290;2022-07-21T00:33:09;6.78;;;2.58;;
70663;SDS011;58237;57.996;56.290;2022-07-21T00:35:34;5.60;;;2.72;;
70663;SDS011;58237;57.996;56.290;2022-07-21T00:37:59;8.40;;;2.70;;
70663;SDS011;58237;57.996;56.290;2022-07-21T00:40:25;5.80;;;2.78;;
70663;SDS011;58237;57.996;56.290;2022-07-21T00:42:50;6.90;;;2.92;;
70663;SDS011;58237;57.996;56.290;2022-07-21T00:45:16;5.63;;;2.67;;
70663;SDS011;58237;57.996;56.290;2022-07-21T00:47:43;6.65;;;2.83;;
70663;SDS011;58237;57.996;56.290;2022-07-21T00:50:10;6.18;;;2.90;;
70663;SDS011;58237;57.996;56.290;2022-07-21T00:52:35;6.07;;;3.05;;
70663;SDS011;58237;57.996;56.290;2022-07-21T00:55:02;6.20;;;2.92;;
70663;SDS011;58237;57.996;56.290;2022-07-21T00:57:29;7.22;;;2.80;;
70663;SDS011;58237;57.996;56.290;2022-07-21T00:59:54;5.13;;;2.35;;
70663;SDS011;58237;57.996;56.290;2022-07-21T01:02:20;6.03;;;2.72;;
70663;SDS011;58237;57.996;56.290;2022-07-21T01:04:45;5.65;;;2.40;;
70663;SDS011;58237;57.996;56.290;2022-07-21T01:07:11;5.72;;;2.90;;
70663;SDS011;58237;57.996;56.290;2022-07-21T01:09:36;6.65;;;2.45;;
70663;SDS011;58237;57.996;56.290;2022-07-21T01:12:02;6.20;;;2.47;;
70663;SDS011;58237;57.996;56.290;2022-07-21T01:14:27;7.00;;;2.63;;
70663;SDS011;58237;57.996;56.290;2022-07-21T01:16:53;6.93;;;2.70;;
70663;SDS011;58237;57.996;56.290;2022-07-21T01:19:19;7.00;;;2.95;;
70663;SDS011;58237;57.996;56.290;2022-07-21T01:21:45;6.15;;;2.90;;
70663;SDS011;58237;57.996;56.290;2022-07-21T01:24:11;7.32;;;3.17;;
70663;SDS011;58237;57.996;56.290;2022-07-21T01:26:43;6.93;;;3.03;;
70663;SDS011;58237;57.996;56.290;2022-07-21T01:29:09;7.22;;;2.90;;
70663;SDS011;58237;57.996;56.290;2022-07-21T01:31:35;5.65;;;2.78;;
70663;SDS011;58237;57.996;56.290;2022-07-21T01:34:00;6.55;;;2.75;;
70663;SDS011;58237;57.996;56.290;2022-07-21T01:36:26;5.72;;;2.95;;
70663;SDS011;58237;57.996;56.290;2022-07-21T01:38:51;7.85;;;3.03;;
70663;SDS011;58237;57.996;56.290;2022-07-21T01:41:17;5.90;;;2.70;;
70663;SDS011;58237;57.996;56.290;2022-07-21T01:43:42;5.13;;;2.63;;
70663;SDS011;58237;57.996;56.290;2022-07-21T01:46:10;6.03;;;2.65;;
70663;SDS011;58237;57.996;56.290;2022-07-21T01:48:35;5.95;;;2.38;;
70663;SDS011;58237;57.996;56.290;2022-07-21T01:51:01;4.95;;;2.00;;
70663;SDS011;58237;57.996;56.290;2022-07-21T01:53:26;5.28;;;2.53;;
70663;SDS011;58237;57.996;56.290;2022-07-21T01:55:51;5.18;;;2.10;;
70663;SDS011;58237;57.996;56.290;2022-07-21T01:58:17;4.88;;;2.38;;
70663;SDS011;58237;57.996;56.290;2022-07-21T02:00:42;8.48;;;3.80;;
70663;SDS011;58237;57.996;56.290;2022-07-21T02:03:08;7.72;;;4.15;;
70663;SDS011;58237;57.996;56.290;2022-07-21T02:05:42;6.70;;;2.50;;
70663;SDS011;58237;57.996;56.290;2022-07-21T02:08:07;5.88;;;2.83;;
70663;SDS011;58237;57.996;56.290;2022-07-21T02:10:33;7.03;;;2.45;;
70663;SDS011;58237;57.996;56.290;2022-07-21T02:12:58;5.30;;;2.70;;
70663;SDS011;58237;57.996;56.290;2022-07-21T02:15:44;6.05;;;2.60;;
70663;SDS011;58237;57.996;56.290;2022-07-21T02:18:09;5.15;;;2.60;;
70663;SDS011;58237;57.996;56.290;2022-07-21T02:20:35;4.82;;;2.40;;
70663;SDS011;58237;57.996;56.290;2022-07-21T02:23:00;5.88;;;2.58;;
70663;SDS011;58237;57.996;56.290;2022-07-21T02:25:25;5.30;;;2.60;;
70663;SDS011;58237;57.996;56.290;2022-07-21T02:27:51;5.47;;;2.58;;
70663;SDS011;58237;57.996;56.290;2022-07-21T02:30:17;5.15;;;2.28;;
70663;SDS011;58237;57.996;56.290;2022-07-21T02:32:43;6.05;;;2.30;;
70663;SDS011;58237;57.996;56.290;2022-07-21T02:35:08;5.30;;;2.60;;
70663;SDS011;58237;57.996;56.290;2022-07-21T02:37:34;5.43;;;2.40;;
70663;SDS011;58237;57.996;56.290;2022-07-21T02:39:59;8.05;;;2.60;;
70663;SDS011;58237;57.996;56.290;2022-07-21T02:42:25;6.43;;;3.00;;
70663;SDS011;58237;57.996;56.290;2022-07-21T02:44:50;7.78;;;3.13;;
70663;SDS011;58237;57.996;56.290;2022-07-21T02:47:15;6.90;;;2.60;;
70663;SDS011;58237;57.996;56.290;2022-07-21T02:49:41;5.38;;;2.42;;
70663;SDS011;58237;57.996;56.290;2022-07-21T02:52:06;6.90;;;2.63;;
70663;SDS011;58237;57.996;56.290;2022-07-21T02:54:32;5.20;;;2.40;;
70663;SDS011;58237;57.996;56.290;2022-07-21T02:56:57;5.13;;;2.45;;
70663;SDS011;58237;57.996;56.290;2022-07-21T02:59:23;6.78;;;2.63;;
70663;SDS011;58237;57.996;56.290;2022-07-21T03:01:48;9.20;;;3.65;;
70663;SDS011;58237;57.996;56.290;2022-07-21T03:04:13;5.60;;;2.90;;
70663;SDS011;58237;57.996;56.290;2022-07-21T03:06:39;6.30;;;3.35;;
70663;SDS011;58237;57.996;56.290;2022-07-21T03:09:04;6.43;;;2.85;;
70663;SDS011;58237;57.996;56.290;2022-07-21T03:11:30;4.82;;;2.80;;
70663;SDS011;58237;57.996;56.290;2022-07-21T03:13:55;5.68;;;2.78;;
70663;SDS011;58237;57.996;56.290;2022-07-21T03:16:21;6.45;;;2.55;;
70663;SDS011;58237;57.996;56.290;2022-07-21T03:18:46;4.65;;;2.30;;
70663;SDS011;58237;57.996;56.290;2022-07-21T03:21:11;4.75;;;1.98;;
70663;SDS011;58237;57.996;56.290;2022-07-21T03:23:37;6.95;;;3.38;;
70663;SDS011;58237;57.996;56.290;2022-07-21T03:26:02;5.85;;;2.33;;
70663;SDS011;58237;57.996;56.290;2022-07-21T03:28:28;4.45;;;2.55;;
70663;SDS011;58237;57.996;56.290;2022-07-21T03:30:53;6.10;;;2.40;;
70663;SDS011;58237;57.996;56.290;2022-07-21T03:33:20;5.40;;;2.55;;
70663;SDS011;58237;57.996;56.290;2022-07-21T03:35:45;7.00;;;2.50;;
70663;SDS011;58237;57.996;56.290;2022-07-21T03:38:11;5.63;;;2.55;;
70663;SDS011;58237;57.996;56.290;2022-07-21T03:40:36;5.70;;;2.60;;
70663;SDS011;58237;57.996;56.290;2022-07-21T03:43:03;6.25;;;3.00;;
70663;SDS011;58237;57.996;56.290;2022-07-21T03:45:29;7.15;;;2.80;;
70663;SDS011;58237;57.996;56.290;2022-07-21T03:47:54;7.47;;;2.50;;
70663;SDS011;58237;57.996;56.290;2022-07-21T03:50:20;5.68;;;2.65;;
70663;SDS011;58237;57.996;56.290;2022-07-21T03:52:46;5.25;;;2.47;;
70663;SDS011;58237;57.996;56.290;2022-07-21T03:55:11;4.82;;;2.17;;
70663;SDS011;58237;57.996;56.290;2022-07-21T03:57:37;4.85;;;2.30;;
70663;SDS011;58237;57.996;56.290;2022-07-21T04:00:04;5.20;;;2.55;;
70663;SDS011;58237;57.996;56.290;2022-07-21T04:02:30;4.95;;;2.55;;
70663;SDS011;58237;57.996;56.290;2022-07-21T04:04:55;4.82;;;2.60;;
70663;SDS011;58237;57.996;56.290;2022-07-21T04:07:20;6.70;;;3.03;;
70663;SDS011;58237;57.996;56.290;2022-07-21T04:09:46;6.20;;;3.30;;
70663;SDS011;58237;57.996;56.290;2022-07-21T04:12:11;5.80;;;2.70;;
70663;SDS011;58237;57.996;56.290;2022-07-21T04:14:37;5.05;;;2.70;;
70663;SDS011;58237;57.996;56.290;2022-07-21T04:17:02;5.53;;;2.75;;
70663;SDS011;58237;57.996;56.290;2022-07-21T04:19:27;8.57;;;3.70;;
70663;SDS011;58237;57.996;56.290;2022-07-21T04:21:53;6.70;;;3.03;;
70663;SDS011;58237;57.996;56.290;2022-07-21T04:24:18;7.32;;;3.92;;
70663;SDS011;58237;57.996;56.290;2022-07-21T04:26:44;5.70;;;3.17;;
70663;SDS011;58237;57.996;56.290;2022-07-21T04:29:09;9.00;;;3.50;;
70663;SDS011;58237;57.996;56.290;2022-07-21T04:31:34;8.90;;;2.92;;
70663;SDS011;58237;57.996;56.290;2022-07-21T04:34:00;5.88;;;3.25;;
70663;SDS011;58237;57.996;56.290;2022-07-21T04:36:25;6.32;;;2.80;;
70663;SDS011;58237;57.996;56.290;2022-07-21T04:38:50;5.63;;;3.00;;
70663;SDS011;58237;57.996;56.290;2022-07-21T04:41:16;6.85;;;2.70;;
70663;SDS011;58237;57.996;56.290;2022-07-21T04:43:41;10.38;;;2.97;;
70663;SDS011;58237;57.996;56.290;2022-07-21T04:46:07;5.70;;;2.40;;
70663;SDS011;58237;57.996;56.290;2022-07-21T04:48:32;4.53;;;2.38;;
70663;SDS011;58237;57.996;56.290;2022-07-21T04:50:58;4.90;;;2.28;;
70663;SDS011;58237;57.996;56.290;2022-07-21T04:53:23;6.97;;;2.63;;
70663;SDS011;58237;57.996;56.290;2022-07-21T04:55:48;5.82;;;3.05;;
70663;SDS011;58237;57.996;56.290;2022-07-21T04:58:14;8.68;;;4.95;;
70663;SDS011;58237;57.996;56.290;2022-07-21T05:00:39;8.38;;;4.68;;
70663;SDS011;58237;57.996;56.290;2022-07-21T05:03:16;5.78;;;3.50;;
70663;SDS011;58237;57.996;56.290;2022-07-21T05:05:42;6.47;;;2.78;;
70663;SDS011;58237;57.996;56.290;2022-07-21T05:08:07;5.95;;;2.25;;
70663;SDS011;58237;57.996;56.290;2022-07-21T05:10:32;4.35;;;2.25;;
70663;SDS011;58237;57.996;56.290;2022-07-21T05:12:58;5.47;;;2.50;;
70663;SDS011;58237;57.996;56.290;2022-07-21T05:15:23;4.68;;;2.25;;
70663;SDS011;58237;57.996;56.290;2022-07-21T05:17:49;5.78;;;2.40;;
70663;SDS011;58237;57.996;56.290;2022-07-21T05:20:14;4.82;;;2.40;;
70663;SDS011;58237;57.996;56.290;2022-07-21T05:22:40;5.03;;;2.70;;
70663;SDS011;58237;57.996;56.290;2022-07-21T05:25:05;5.40;;;2.47;;
70663;SDS011;58237;57.996;56.290;2022-07-21T05:27:31;5.45;;;2.90;;
70663;SDS011;58237;57.996;56.290;2022-07-21T05:29:57;5.03;;;2.20;;
70663;SDS011;58237;57.996;56.290;2022-07-21T05:32:22;6.03;;;2.10;;
70663;SDS011;58237;57.996;56.290;2022-07-21T05:34:48;5.35;;;2.03;;
70663;SDS011;58237;57.996;56.290;2022-07-21T05:37:13;4.55;;;2.30;;
70663;SDS011;58237;57.996;56.290;2022-07-21T05:39:39;4.10;;;1.98;;
70663;SDS011;58237;57.996;56.290;2022-07-21T05:42:04;3.65;;;1.58;;
70663;SDS011;58237;57.996;56.290;2022-07-21T05:44:29;4.25;;;1.77;;
70663;SDS011;58237;57.996;56.290;2022-07-21T05:46:55;3.67;;;1.90;;
70663;SDS011;58237;57.996;56.290;2022-07-21T05:49:20;4.15;;;2.10;;
70663;SDS011;58237;57.996;56.290;2022-07-21T05:51:45;4.25;;;2.08;;
70663;SDS011;58237;57.996;56.290;2022-07-21T05:54:11;2.83;;;1.80;;
70663;SDS011;58237;57.996;56.290;2022-07-21T05:56:36;5.38;;;1.65;;
70663;SDS011;58237;57.996;56.290;2022-07-21T05:59:02;3.25;;;1.60;;
70663;SDS011;58237;57.996;56.290;2022-07-21T06:01:27;3.15;;;1.80;;
70663;SDS011;58237;57.996;56.290;2022-07-21T06:03:53;3.92;;;1.80;;
70663;SDS011;58237;57.996;56.290;2022-07-21T06:06:19;3.47;;;1.65;;
70663;SDS011;58237;57.996;56.290;2022-07-21T06:08:45;5.55;;;1.92;;
70663;SDS011;58237;57.996;56.290;2022-07-21T06:11:11;3.08;;;1.63;;
70663;SDS011;58237;57.996;56.290;2022-07-21T06:13:37;6.57;;;2.08;;
70663;SDS011;58237;57.996;56.290;2022-07-21T06:16:03;5.05;;;2.40;;
70663;SDS011;58237;57.996;56.290;2022-07-21T06:18:29;4.80;;;2.35;;
70663;SDS011;58237;57.996;56.290;2022-07-21T06:20:54;4.57;;;2.00;;
70663;SDS011;58237;57.996;56.290;2022-07-21T06:23:19;3.47;;;1.80;;
70663;SDS011;58237;57.996;56.290;2022-07-21T06:25:45;4.03;;;1.75;;
70663;SDS011;58237;57.996;56.290;2022-07-21T06:28:10;3.10;;;1.73;;
70663;SDS011;58237;57.996;56.290;2022-07-21T06:30:35;3.65;;;1.90;;
70663;SDS011;58237;57.996;56.290;2022-07-21T06:33:01;4.93;;;2.22;;
70663;SDS011;58237;57.996;56.290;2022-07-21T06:35:26;4.35;;;2.22;;
70663;SDS011;58237;57.996;56.290;2022-07-21T06:37:52;4.35;;;2.17;;
70663;SDS011;58237;57.996;56.290;2022-07-21T06:40:18;4.07;;;2.10;;
70663;SDS011;58237;57.996;56.290;2022-07-21T06:42:43;3.50;;;1.75;;
70663;SDS011;58237;57.996;56.290;2022-07-21T06:45:09;3.67;;;2.00;;
70663;SDS011;58237;57.996;56.290;2022-07-21T06:47:34;4.30;;;2.00;;
70663;SDS011;58237;57.996;56.290;2022-07-21T06:49:59;3.80;;;1.85;;
70663;SDS011;58237;57.996;56.290;2022-07-21T06:52:25;3.53;;;1.88;;
70663;SDS011;58237;57.996;56.290;2022-07-21T06:54:50;4.07;;;2.28;;
70663;SDS011;58237;57.996;56.290;2022-07-21T06:57:15;3.85;;;2.20;;
70663;SDS011;58237;57.996;56.290;2022-07-21T06:59:41;3.63;;;1.92;;
70663;SDS011;58237;57.996;56.290;2022-07-21T07:02:06;3.83;;;2.13;;
70663;SDS011;58237;57.996;56.290;2022-07-21T07:04:31;3.78;;;1.83;;
70663;SDS011;58237;57.996;56.290;2022-07-21T07:06:57;3.45;;;1.73;;
70663;SDS011;58237;57.996;56.290;2022-07-21T07:09:22;4.78;;;2.10;;
70663;SDS011;58237;57.996;56.290;2022-07-21T07:11:48;4.15;;;1.73;;
70663;SDS011;58237;57.996;56.290;2022-07-21T07:14:13;5.03;;;2.10;;
70663;SDS011;58237;57.996;56.290;2022-07-21T07:16:39;3.78;;;2.08;;
70663;SDS011;58237;57.996;56.290;2022-07-21T07:19:04;3.90;;;2.00;;
70663;SDS011;58237;57.996;56.290;2022-07-21T07:21:30;3.65;;;2.00;;
70663;SDS011;58237;57.996;56.290;2022-07-21T07:23:56;9.30;;;2.60;;
70663;SDS011;58237;57.996;56.290;2022-07-21T07:26:21;4.40;;;2.05;;
70663;SDS011;58237;57.996;56.290;2022-07-21T07:28:46;6.95;;;2.63;;
70663;SDS011;58237;57.996;56.290;2022-07-21T07:31:12;4.25;;;2.13;;
70663;SDS011;58237;57.996;56.290;2022-07-21T07:33:37;4.32;;;2.42;;
70663;SDS011;58237;57.996;56.290;2022-07-21T07:36:03;3.85;;;2.00;;
70663;SDS011;58237;57.996;56.290;2022-07-21T07:38:28;3.58;;;1.90;;
70663;SDS011;58237;57.996;56.290;2022-07-21T07:40:53;3.80;;;1.75;;
70663;SDS011;58237;57.996;56.290;2022-07-21T07:43:19;3.75;;;2.00;;
70663;SDS011;58237;57.996;56.290;2022-07-21T07:45:44;4.68;;;1.90;;
70663;SDS011;58237;57.996;56.290;2022-07-21T07:48:10;4.50;;;1.85;;
70663;SDS011;58237;57.996;56.290;2022-07-21T07:50:35;3.90;;;1.98;;
70663;SDS011;58237;57.996;56.290;2022-07-21T07:53:00;4.30;;;1.90;;
70663;SDS011;58237;57.996;56.290;2022-07-21T07:55:26;5.50;;;2.38;;
70663;SDS011;58237;57.996;56.290;2022-07-21T07:57:51;3.38;;;1.88;;
70663;SDS011;58237;57.996;56.290;2022-07-21T08:00:17;3.22;;;1.95;;
70663;SDS011;58237;57.996;56.290;2022-07-21T08:02:43;5.05;;;1.90;;
70663;SDS011;58237;57.996;56.290;2022-07-21T08:05:08;3.75;;;1.98;;
70663;SDS011;58237;57.996;56.290;2022-07-21T08:07:36;4.05;;;2.00;;
70663;SDS011;58237;57.996;56.290;2022-07-21T08:10:02;3.22;;;1.88;;
70663;SDS011;58237;57.996;56.290;2022-07-21T08:12:28;2.83;;;1.67;;
70663;SDS011;58237;57.996;56.290;2022-07-21T08:14:54;4.32;;;1.90;;
70663;SDS011;58237;57.996;56.290;2022-07-21T08:17:19;4.18;;;1.90;;
70663;SDS011;58237;57.996;56.290;2022-07-21T08:19:45;3.83;;;1.85;;
70663;SDS011;58237;57.996;56.290;2022-07-21T08:22:10;3.72;;;1.70;;
70663;SDS011;58237;57.996;56.290;2022-07-21T08:24:35;3.70;;;1.85;;
70663;SDS011;58237;57.996;56.290;2022-07-21T08:27:01;4.22;;;2.08;;
70663;SDS011;58237;57.996;56.290;2022-07-21T08:29:26;3.63;;;1.77;;
70663;SDS011;58237;57.996;56.290;2022-07-21T08:31:51;3.63;;;1.90;;
70663;SDS011;58237;57.996;56.290;2022-07-21T08:34:17;3.50;;;1.67;;
70663;SDS011;58237;57.996;56.290;2022-07-21T08:36:42;3.90;;;1.88;;
70663;SDS011;58237;57.996;56.290;2022-07-21T08:39:08;5.63;;;2.22;;
70663;SDS011;58237;57.996;56.290;2022-07-21T08:41:33;3.58;;;2.08;;
70663;SDS011;58237;57.996;56.290;2022-07-21T08:44:00;3.47;;;1.85;;
70663;SDS011;58237;57.996;56.290;2022-07-21T08:46:25;3.42;;;2.00;;
70663;SDS011;58237;57.996;56.290;2022-07-21T08:48:51;5.40;;;1.80;;
70663;SDS011;58237;57.996;56.290;2022-07-21T08:51:17;3.72;;;1.83;;
70663;SDS011;58237;57.996;56.290;2022-07-21T08:53:46;4.32;;;2.08;;
70663;SDS011;58237;57.996;56.290;2022-07-21T08:56:12;5.53;;;2.28;;
70663;SDS011;58237;57.996;56.290;2022-07-21T08:58:37;3.63;;;2.13;;
70663;SDS011;58237;57.996;56.290;2022-07-21T09:01:03;4.30;;;2.30;;
70663;SDS011;58237;57.996;56.290;2022-07-21T09:03:28;4.10;;;1.80;;
70663;SDS011;58237;57.996;56.290;2022-07-21T09:06:04;4.40;;;1.85;;
70663;SDS011;58237;57.996;56.290;2022-07-21T09:08:30;4.30;;;2.20;;
70663;SDS011;58237;57.996;56.290;2022-07-21T09:11:17;5.05;;;1.80;;
70663;SDS011;58237;57.996;56.290;2022-07-21T09:13:42;3.60;;;1.80;;
70663;SDS011;58237;57.996;56.290;2022-07-21T09:16:08;3.42;;;1.80;;
70663;SDS011;58237;57.996;56.290;2022-07-21T09:18:33;3.35;;;1.80;;
70663;SDS011;58237;57.996;56.290;2022-07-21T09:20:59;3.05;;;1.70;;
70663;SDS011;58237;57.996;56.290;2022-07-21T09:23:25;3.33;;;1.80;;
70663;SDS011;58237;57.996;56.290;2022-07-21T09:25:59;5.95;;;2.03;;
70663;SDS011;58237;57.996;56.290;2022-07-21T09:28:25;4.70;;;1.50;;
70663;SDS011;58237;57.996;56.290;2022-07-21T09:30:52;3.60;;;1.90;;
70663;SDS011;58237;57.996;56.290;2022-07-21T09:33:19;5.50;;;1.90;;
70663;SDS011;58237;57.996;56.290;2022-07-21T09:38:19;5.30;;;2.10;;
70663;SDS011;58237;57.996;56.290;2022-07-21T09:40:48;3.70;;;1.70;;
70663;SDS011;58237;57.996;56.290;2022-07-21T09:46:02;3.60;;;1.70;;
70663;SDS011;58237;57.996;56.290;2022-07-21T09:48:31;3.00;;;1.52;;
70663;SDS011;58237;57.996;56.290;2022-07-21T09:50:56;4.88;;;2.00;;
70663;SDS011;58237;57.996;56.290;2022-07-21T09:53:22;4.22;;;1.98;;
70663;SDS011;58237;57.996;56.290;2022-07-21T09:55:47;4.55;;;2.13;;
70663;SDS011;58237;57.996;56.290;2022-07-21T09:58:13;3.35;;;1.67;;
70663;SDS011;58237;57.996;56.290;2022-07-21T10:00:39;2.35;;;1.48;;
70663;SDS011;58237;57.996;56.290;2022-07-21T10:03:04;3.50;;;1.90;;
70663;SDS011;58237;57.996;56.290;2022-07-21T10:05:30;4.32;;;2.00;;
70663;SDS011;58237;57.996;56.290;2022-07-21T10:07:55;4.88;;;2.58;;
70663;SDS011;58237;57.996;56.290;2022-07-21T10:10:21;3.10;;;1.70;;
70663;SDS011;58237;57.996;56.290;2022-07-21T10:12:46;3.33;;;1.70;;
70663;SDS011;58237;57.996;56.290;2022-07-21T10:15:11;3.80;;;1.70;;
70663;SDS011;58237;57.996;56.290;2022-07-21T10:17:37;3.88;;;1.77;;
70663;SDS011;58237;57.996;56.290;2022-07-21T10:20:04;4.72;;;2.10;;
70663;SDS011;58237;57.996;56.290;2022-07-21T10:25:00;3.45;;;1.80;;
70663;SDS011;58237;57.996;56.290;2022-07-21T10:27:26;7.30;;;2.17;;
70663;SDS011;58237;57.996;56.290;2022-07-21T10:29:52;3.42;;;1.95;;
70663;SDS011;58237;57.996;56.290;2022-07-21T10:32:19;6.88;;;2.40;;
70663;SDS011;58237;57.996;56.290;2022-07-21T10:34:45;5.93;;;2.03;;
70663;SDS011;58237;57.996;56.290;2022-07-21T10:37:11;5.35;;;2.50;;
70663;SDS011;58237;57.996;56.290;2022-07-21T10:39:56;4.53;;;2.00;;
70663;SDS011;58237;57.996;56.290;2022-07-21T10:42:21;4.80;;;2.40;;
70663;SDS011;58237;57.996;56.290;2022-07-21T10:44:47;4.43;;;2.05;;
70663;SDS011;58237;57.996;56.290;2022-07-21T10:47:13;4.53;;;2.20;;
70663;SDS011;58237;57.996;56.290;2022-07-21T10:49:46;5.40;;;2.30;;
70663;SDS011;58237;57.996;56.290;2022-07-21T11:02:46;4.55;;;2.38;;
70663;SDS011;58237;57.996;56.290;2022-07-21T11:05:12;4.50;;;2.25;;
70663;SDS011;58237;57.996;56.290;2022-07-21T11:10:22;4.18;;;2.35;;
70663;SDS011;58237;57.996;56.290;2022-07-21T11:12:57;3.72;;;2.30;;
70663;SDS011;58237;57.996;56.290;2022-07-21T11:18:07;4.13;;;2.30;;
70663;SDS011;58237;57.996;56.290;2022-07-21T11:20:32;3.95;;;2.22;;
70663;SDS011;58237;57.996;56.290;2022-07-21T11:22:58;3.85;;;2.10;;
70663;SDS011;58237;57.996;56.290;2022-07-21T11:25:23;4.63;;;2.20;;
70663;SDS011;58237;57.996;56.290;2022-07-21T11:27:48;3.92;;;2.38;;
70663;SDS011;58237;57.996;56.290;2022-07-21T11:30:17;4.43;;;2.10;;
70663;SDS011;58237;57.996;56.290;2022-07-21T11:32:46;3.38;;;1.92;;
70663;SDS011;58237;57.996;56.290;2022-07-21T11:35:12;3.72;;;2.15;;
70663;SDS011;58237;57.996;56.290;2022-07-21T11:37:38;4.47;;;2.20;;
70663;SDS011;58237;57.996;56.290;2022-07-21T11:40:05;4.10;;;2.20;;
70663;SDS011;58237;57.996;56.290;2022-07-21T11:42:30;3.28;;;1.88;;
70663;SDS011;58237;57.996;56.290;2022-07-21T11:44:56;4.20;;;1.70;;
70663;SDS011;58237;57.996;56.290;2022-07-21T11:47:21;3.45;;;1.50;;
70663;SDS011;58237;57.996;56.290;2022-07-21T11:49:47;3.60;;;1.80;;
70663;SDS011;58237;57.996;56.290;2022-07-21T11:52:15;3.83;;;1.35;;
70663;SDS011;58237;57.996;56.290;2022-07-21T11:54:45;2.75;;;1.40;;
70663;SDS011;58237;57.996;56.290;2022-07-21T11:57:11;3.97;;;1.95;;
70663;SDS011;58237;57.996;56.290;2022-07-21T11:59:37;3.47;;;1.60;;
70663;SDS011;58237;57.996;56.290;2022-07-21T12:02:06;4.43;;;1.85;;
70663;SDS011;58237;57.996;56.290;2022-07-21T12:04:36;4.18;;;1.85;;
70663;SDS011;58237;57.996;56.290;2022-07-21T12:07:02;4.53;;;1.70;;
70663;SDS011;58237;57.996;56.290;2022-07-21T12:09:28;3.85;;;1.75;;
70663;SDS011;58237;57.996;56.290;2022-07-21T12:11:54;2.90;;;1.80;;
70663;SDS011;58237;57.996;56.290;2022-07-21T12:14:19;6.60;;;1.88;;
70663;SDS011;58237;57.996;56.290;2022-07-21T12:16:51;3.65;;;1.75;;
70663;SDS011;58237;57.996;56.290;2022-07-21T12:19:17;4.85;;;2.10;;
70663;SDS011;58237;57.996;56.290;2022-07-21T12:21:44;3.42;;;1.60;;
70663;SDS011;58237;57.996;56.290;2022-07-21T12:24:10;5.72;;;2.10;;
70663;SDS011;58237;57.996;56.290;2022-07-21T12:26:35;3.28;;;1.77;;
70663;SDS011;58237;57.996;56.290;2022-07-21T12:29:00;3.65;;;1.88;;
70663;SDS011;58237;57.996;56.290;2022-07-21T12:31:26;4.70;;;2.00;;
70663;SDS011;58237;57.996;56.290;2022-07-21T12:33:52;3.15;;;1.80;;
70663;SDS011;58237;57.996;56.290;2022-07-21T12:36:18;3.88;;;1.70;;
70663;SDS011;58237;57.996;56.290;2022-07-21T12:38:48;3.65;;;2.10;;
70663;SDS011;58237;57.996;56.290;2022-07-21T12:41:15;4.38;;;2.45;;
70663;SDS011;58237;57.996;56.290;2022-07-21T12:43:41;3.92;;;1.73;;
70663;SDS011;58237;57.996;56.290;2022-07-21T12:46:10;4.50;;;2.10;;
70663;SDS011;58237;57.996;56.290;2022-07-21T12:48:36;2.80;;;1.50;;
70663;SDS011;58237;57.996;56.290;2022-07-21T12:51:07;3.55;;;1.60;;
70663;SDS011;58237;57.996;56.290;2022-07-21T12:53:33;3.28;;;1.77;;
70663;SDS011;58237;57.996;56.290;2022-07-21T12:55:59;4.18;;;1.40;;
70663;SDS011;58237;57.996;56.290;2022-07-21T12:58:25;3.30;;;1.60;;
70663;SDS011;58237;57.996;56.290;2022-07-21T13:00:50;3.65;;;1.60;;
70663;SDS011;58237;57.996;56.290;2022-07-21T13:03:16;3.55;;;1.77;;
70663;SDS011;58237;57.996;56.290;2022-07-21T13:05:41;3.63;;;1.80;;
70663;SDS011;58237;57.996;56.290;2022-07-21T13:08:06;3.85;;;2.15;;
70663;SDS011;58237;57.996;56.290;2022-07-21T13:10:32;3.45;;;1.50;;
70663;SDS011;58237;57.996;56.290;2022-07-21T13:12:57;4.68;;;1.80;;
70663;SDS011;58237;57.996;56.290;2022-07-21T13:15:23;4.65;;;2.08;;
70663;SDS011;58237;57.996;56.290;2022-07-21T13:17:48;3.55;;;1.90;;
70663;SDS011;58237;57.996;56.290;2022-07-21T13:20:14;3.75;;;1.70;;
70663;SDS011;58237;57.996;56.290;2022-07-21T13:22:39;3.22;;;2.00;;
70663;SDS011;58237;57.996;56.290;2022-07-21T13:25:05;5.07;;;1.70;;
70663;SDS011;58237;57.996;56.290;2022-07-21T13:27:31;4.65;;;1.80;;
70663;SDS011;58237;57.996;56.290;2022-07-21T13:29:56;3.45;;;1.70;;
70663;SDS011;58237;57.996;56.290;2022-07-21T13:32:22;3.47;;;1.50;;
70663;SDS011;58237;57.996;56.290;2022-07-21T13:34:47;3.33;;;1.65;;
70663;SDS011;58237;57.996;56.290;2022-07-21T13:37:12;3.30;;;1.60;;
70663;SDS011;58237;57.996;56.290;2022-07-21T13:39:38;4.38;;;1.50;;
70663;SDS011;58237;57.996;56.290;2022-07-21T13:42:04;5.35;;;1.80;;
70663;SDS011;58237;57.996;56.290;2022-07-21T13:44:30;3.67;;;1.67;;
70663;SDS011;58237;57.996;56.290;2022-07-21T13:46:55;4.95;;;1.60;;
70663;SDS011;58237;57.996;56.290;2022-07-21T13:49:21;3.20;;;1.50;;
70663;SDS011;58237;57.996;56.290;2022-07-21T13:51:46;5.68;;;2.17;;
70663;SDS011;58237;57.996;56.290;2022-07-21T13:54:11;5.13;;;1.83;;
70663;SDS011;58237;57.996;56.290;2022-07-21T13:56:37;4.00;;;1.80;;
70663;SDS011;58237;57.996;56.290;2022-07-21T13:59:02;3.88;;;1.50;;
70663;SDS011;58237;57.996;56.290;2022-07-21T14:01:27;4.00;;;1.80;;
70663;SDS011;58237;57.996;56.290;2022-07-21T14:03:53;4.13;;;1.67;;
70663;SDS011;58237;57.996;56.290;2022-07-21T14:06:18;5.25;;;1.60;;
70663;SDS011;58237;57.996;56.290;2022-07-21T14:08:44;4.63;;;2.08;;
70663;SDS011;58237;57.996;56.290;2022-07-21T14:11:09;4.18;;;1.55;;
70663;SDS011;58237;57.996;56.290;2022-07-21T14:13:35;3.03;;;1.58;;
70663;SDS011;58237;57.996;56.290;2022-07-21T14:16:01;3.00;;;1.35;;
70663;SDS011;58237;57.996;56.290;2022-07-21T14:18:27;4.65;;;1.40;;
70663;SDS011;58237;57.996;56.290;2022-07-21T14:20:52;2.50;;;1.23;;
70663;SDS011;58237;57.996;56.290;2022-07-21T14:23:21;1.77;;;1.10;;
70663;SDS011;58237;57.996;56.290;2022-07-21T14:25:47;2.22;;;1.20;;
70663;SDS011;58237;57.996;56.290;2022-07-21T14:28:12;2.45;;;1.10;;
70663;SDS011;58237;57.996;56.290;2022-07-21T14:30:38;1.55;;;1.05;;
70663;SDS011;58237;57.996;56.290;2022-07-21T14:33:03;2.58;;;1.23;;
70663;SDS011;58237;57.996;56.290;2022-07-21T14:35:28;2.42;;;1.20;;
70663;SDS011;58237;57.996;56.290;2022-07-21T14:37:54;2.72;;;1.40;;
70663;SDS011;58237;57.996;56.290;2022-07-21T14:40:20;3.70;;;1.40;;
70663;SDS011;58237;57.996;56.290;2022-07-21T14:42:46;3.72;;;1.60;;
70663;SDS011;58237;57.996;56.290;2022-07-21T14:45:11;3.20;;;1.45;;
70663;SDS011;58237;57.996;56.290;2022-07-21T14:47:36;3.90;;;1.70;;
70663;SDS011;58237;57.996;56.290;2022-07-21T14:50:02;5.50;;;2.00;;